< < Back
Terminal Aerodrome Forecast


Current Version              Previous Versions:   1  2  3  4  5  6  7  8  9  

Terminal Aerodrome Forecast

446
FTUS44 KBMX 301139
TAFTCL
TAF
KTCL 301139Z 3012/0112 20008KT 6SM SHRA VCTS SCT015 BKN040CB
      TEMPO 3012/3013 3SM TSRA
     FM301500 25010G18KT P6SM VCTS BKN050CB
     FM302000 25012G18KT P6SM SCT060 BKN250
     FM010300 23005KT P6SM SCT250=



Latest METAR

208
SAUS70 KWBC 010000 RRK
MTRTCL
METAR KTCL 302353Z 16005KT 9SM SCT039 SCT047 BKN080 26/21 A2999 RMK AO2
SLP152 T02610211 10267 20239 53007


USA.gov is the U.S. government's official web portal to all federal, state and local government web resources and services.